createdAt,value
2022-08-20T00:02:10.150Z,100472.31
2022-08-20T00:04:39.681Z,100474.72
2022-08-20T00:07:08.053Z,100464.84
2022-08-20T00:09:36.886Z,100458.53
2022-08-20T00:12:07.458Z,100470.75
2022-08-20T00:14:34.680Z,100469.97
2022-08-20T00:17:02.186Z,100474.34
2022-08-20T00:19:29.600Z,100475.09
2022-08-20T00:21:58.433Z,100466.44
2022-08-20T00:24:25.921Z,100459.69
2022-08-20T00:26:53.130Z,100468.78
2022-08-20T00:29:20.607Z,100463.66
2022-08-20T00:31:50.441Z,100463.25
2022-08-20T00:34:17.811Z,100458.50
2022-08-20T00:36:44.988Z,100462.47
2022-08-20T00:39:12.426Z,100460.88
2022-08-20T00:41:39.669Z,100470.78
2022-08-20T00:44:09.391Z,100473.16
2022-08-20T00:46:36.909Z,100469.22
2022-08-20T00:49:05.962Z,100470.41
2022-08-20T00:51:39.059Z,100471.19
2022-08-20T00:54:15.060Z,100465.66
2022-08-20T00:56:44.043Z,100462.50
2022-08-20T00:59:14.970Z,100464.09
2022-08-20T01:01:55.091Z,100474.72
2022-08-20T01:04:27.977Z,100468.78
2022-08-20T01:06:55.194Z,100468.41
2022-08-20T01:09:50.110Z,100468.41
2022-08-20T01:12:09.913Z,100463.66
2022-08-20T01:14:46.609Z,100462.84
2022-08-20T01:17:20.547Z,100459.69
2022-08-20T01:19:49.420Z,100454.56
2022-08-20T01:22:39.823Z,100460.09
2022-08-20T01:25:12.643Z,100463.25
2022-08-20T01:27:42.721Z,100454.97
2022-08-20T01:30:10.382Z,100445.91
2022-08-20T01:32:37.606Z,100447.06
2022-08-20T01:35:05.673Z,100451.41
2022-08-20T01:37:32.827Z,100454.97
2022-08-20T01:40:00.657Z,100456.16
2022-08-20T01:42:32.293Z,100454.56
2022-08-20T01:44:59.402Z,100440.78
2022-08-20T01:47:31.381Z,100431.28
2022-08-20T01:50:16.342Z,100428.53
2022-08-20T01:52:50.176Z,100426.59
2022-08-20T01:55:17.742Z,100426.16
2022-08-20T01:57:44.949Z,100434.06
2022-08-20T02:00:20.068Z,100429.72
2022-08-20T02:02:49.435Z,100426.97
2022-08-20T02:05:16.895Z,100435.66
2022-08-20T02:07:44.176Z,100428.16
2022-08-20T02:10:12.860Z,100426.97
2022-08-20T02:12:40.562Z,100430.88
2022-08-20T02:15:10.915Z,100426.56
2022-08-20T02:17:39.246Z,100439.56
2022-08-20T02:20:14.152Z,100432.84
2022-08-20T02:22:45.755Z,100425.34
2022-08-20T02:25:18.499Z,100423.78
2022-08-20T02:27:46.421Z,100427.34
2022-08-20T02:30:19.992Z,100421.00
2022-08-20T02:32:56.362Z,100420.63
2022-08-20T02:35:24.223Z,100419.03
2022-08-20T02:37:52.472Z,100410.38
2022-08-20T02:40:27.269Z,100415.50
2022-08-20T02:42:59.085Z,100415.91
2022-08-20T02:45:26.308Z,100400.50
2022-08-20T02:47:54.282Z,100400.50
2022-08-20T02:50:23.902Z,100409.16
2022-08-20T02:52:51.801Z,100394.56
2022-08-20T02:55:27.927Z,100391.81
2022-08-20T02:57:58.559Z,100396.94
2022-08-20T03:00:26.858Z,100391.03
2022-08-20T03:02:54.053Z,100393.78
2022-08-20T03:05:21.269Z,100398.91
2022-08-20T03:07:51.481Z,100391.00
2022-08-20T03:10:21.896Z,100391.38
2022-08-20T03:12:50.471Z,100389.81
2022-08-20T03:15:17.979Z,100382.69
2022-08-20T03:17:45.336Z,100397.63
2022-08-20T03:20:13.111Z,100405.16
2022-08-20T03:22:40.520Z,100405.16
2022-08-20T03:25:07.977Z,100415.03
2022-08-20T03:27:36.489Z,100412.63
2022-08-20T03:30:08.409Z,100409.09
2022-08-20T03:32:35.626Z,100404.00
2022-08-20T03:35:02.862Z,100413.84
2022-08-20T03:37:32.017Z,100410.66
2022-08-20T03:39:59.746Z,100407.53
2022-08-20T03:42:27.155Z,100398.84
2022-08-20T03:44:58.872Z,100389.00
2022-08-20T03:47:27.549Z,100388.97
2022-08-20T03:49:58.963Z,100387.38
2022-08-20T03:52:28.574Z,100394.84
2022-08-20T03:54:56.469Z,100401.22
2022-08-20T03:57:23.875Z,100400.03
2022-08-20T03:59:57.990Z,100389.78
2022-08-20T04:02:25.705Z,100392.94
2022-08-20T04:04:52.868Z,100399.22
2022-08-20T04:07:25.612Z,100408.31
2022-08-20T04:09:53.429Z,100412.66
2022-08-20T04:12:20.971Z,100417.03
2022-08-20T04:14:48.511Z,100411.47
2022-08-20T04:17:17.484Z,100412.22
2022-08-20T04:19:45.458Z,100408.28
2022-08-20T04:22:15.994Z,100408.25
2022-08-20T04:24:43.406Z,100409.47
2022-08-20T04:27:10.972Z,100405.91
2022-08-20T04:29:43.057Z,100403.09
2022-08-20T04:32:10.190Z,100414.91
2022-08-20T04:34:37.323Z,100407.84
2022-08-20T04:37:05.172Z,100418.88
2022-08-20T04:39:32.601Z,100418.06
2022-08-20T04:41:59.792Z,100415.28
2022-08-20T04:44:27.504Z,100418.03
2022-08-20T04:46:55.137Z,100409.00
2022-08-20T04:49:25.046Z,100411.00
2022-08-20T04:51:52.779Z,100410.63
2022-08-20T04:54:20.019Z,100432.31
2022-08-20T04:56:48.234Z,100429.59
2022-08-20T04:59:15.701Z,100435.09
2022-08-20T05:01:42.833Z,100432.34
2022-08-20T05:04:10.013Z,100434.34
2022-08-20T05:06:37.670Z,100430.81
2022-08-20T05:09:05.686Z,100433.97
2022-08-20T05:11:36.541Z,100430.84
2022-08-20T05:14:05.503Z,100425.31
2022-08-20T05:16:37.847Z,100432.41
2022-08-20T05:19:06.225Z,100435.94
2022-08-20T05:21:33.974Z,100437.56
2022-08-20T05:24:02.884Z,100427.72
2022-08-20T05:26:30.095Z,100425.75
2022-08-20T05:28:59.013Z,100434.03
2022-08-20T05:31:32.230Z,100425.75
2022-08-20T05:34:09.590Z,100424.59
2022-08-20T05:36:42.537Z,100428.50
2022-08-20T05:39:10.043Z,100430.88
2022-08-20T05:41:38.310Z,100432.06
2022-08-20T05:44:10.007Z,100433.28
2022-08-20T05:46:40.937Z,100430.88
2022-08-20T05:49:09.244Z,100431.28
2022-08-20T05:51:37.089Z,100428.09
2022-08-20T05:54:04.822Z,100434.41
2022-08-20T05:56:32.532Z,100434.00
2022-08-20T05:59:06.613Z,100433.19
2022-08-20T06:01:35.288Z,100428.34
2022-08-20T06:04:21.424Z,100437.84
2022-08-20T06:06:48.622Z,100434.25
2022-08-20T06:09:30.785Z,100435.03
2022-08-20T06:12:03.959Z,100436.22
2022-08-20T06:14:31.955Z,100440.44
2022-08-20T06:17:09.990Z,100434.84
2022-08-20T06:19:42.727Z,100443.22
2022-08-20T06:22:20.531Z,100444.69
2022-08-20T06:24:52.489Z,100444.59
2022-08-20T06:27:20.243Z,100454.50
2022-08-20T06:29:47.615Z,100445.78
2022-08-20T06:32:14.796Z,100457.28
2022-08-20T06:34:50.918Z,100454.13
2022-08-20T06:37:20.219Z,100462.75
2022-08-20T06:39:47.447Z,100461.72
2022-08-20T06:42:14.593Z,100455.28
2022-08-20T06:44:50.834Z,100455.00
2022-08-20T06:47:18.843Z,100463.06
2022-08-20T06:49:47.512Z,100465.88
2022-08-20T06:52:17.103Z,100473.97
2022-08-20T06:54:45.098Z,100465.81
2022-08-20T06:57:12.817Z,100464.28
2022-08-20T06:59:39.944Z,100463.66
2022-08-20T07:02:07.809Z,100469.66
2022-08-20T07:04:34.905Z,100462.28
2022-08-20T07:07:02.124Z,100455.56
2022-08-20T07:09:29.306Z,100453.66
2022-08-20T07:11:56.623Z,100461.72
2022-08-20T07:14:24.192Z,100460.28
2022-08-20T07:16:51.339Z,100457.28
2022-08-20T07:19:18.561Z,100456.88
2022-08-20T07:21:47.574Z,100459.94
2022-08-20T07:24:14.723Z,100462.53
2022-08-20T07:26:41.847Z,100463.00
2022-08-20T07:29:09.032Z,100464.59
2022-08-20T07:31:54.530Z,100462.72
2022-08-20T07:34:22.506Z,100469.22
2022-08-20T07:36:50.343Z,100464.72
2022-08-20T07:39:17.508Z,100462.97
2022-08-20T07:42:02.886Z,100464.25
2022-08-20T07:44:31.138Z,100468.00
2022-08-20T07:46:59.107Z,100476.00
2022-08-20T07:49:26.331Z,100482.72
2022-08-20T07:51:53.455Z,100483.97
2022-08-20T07:54:20.557Z,100474.00
2022-08-20T07:56:48.676Z,100479.31
2022-08-20T07:59:16.897Z,100479.91
2022-08-20T08:01:44.002Z,100475.22
2022-08-20T08:04:11.408Z,100473.47
2022-08-20T08:06:38.573Z,100477.34
2022-08-20T08:09:07.224Z,100479.63
2022-08-20T08:11:36.945Z,100481.31
2022-08-20T08:14:06.623Z,100483.91
2022-08-20T08:16:35.149Z,100484.31
2022-08-20T08:19:04.980Z,100493.19
2022-08-20T08:21:32.366Z,100486.47
2022-08-20T08:23:59.486Z,100482.44
2022-08-20T08:26:28.812Z,100494.28
2022-08-20T08:28:56.749Z,100490.41
2022-08-20T08:31:25.615Z,100489.38
2022-08-20T08:33:52.814Z,100490.81
2022-08-20T08:36:19.883Z,100488.03
2022-08-20T08:38:47.182Z,100494.63
2022-08-20T08:41:14.341Z,100497.66
2022-08-20T08:43:42.150Z,100487.16
2022-08-20T08:46:11.047Z,100502.13
2022-08-20T08:48:43.408Z,100510.06
2022-08-20T08:51:12.619Z,100512.06
2022-08-20T08:54:04.633Z,100504.63
2022-08-20T08:56:34.006Z,100501.28
2022-08-20T08:59:04.491Z,100503.72
2022-08-20T09:01:53.780Z,100501.13
2022-08-20T09:04:24.400Z,100503.25
2022-08-20T09:06:54.462Z,100495.31
2022-08-20T09:09:24.802Z,100504.66
2022-08-20T09:11:53.267Z,100503.84
2022-08-20T09:14:21.339Z,100497.19
2022-08-20T09:16:52.654Z,100491.34
2022-08-20T09:19:21.298Z,100497.34
2022-08-20T09:21:48.446Z,100492.59
2022-08-20T09:24:15.590Z,100496.69
2022-08-20T09:26:42.734Z,100487.19
2022-08-20T09:29:09.999Z,100497.94
2022-08-20T09:31:37.385Z,100495.38
2022-08-20T09:34:05.749Z,100496.41
2022-08-20T09:36:33.234Z,100496.84
2022-08-20T09:39:02.900Z,100493.91
2022-08-20T09:41:31.077Z,100493.44
2022-08-20T09:44:01.264Z,100494.53
2022-08-20T09:46:28.377Z,100490.97
2022-08-20T09:48:55.535Z,100488.44
2022-08-20T09:51:22.871Z,100490.78
2022-08-20T09:53:50.405Z,100491.41
2022-08-20T09:56:18.095Z,100487.16
2022-08-20T09:58:48.329Z,100490.88
2022-08-20T10:01:17.645Z,100486.94
2022-08-20T10:03:47.921Z,100489.78
2022-08-20T10:06:16.640Z,100486.94
2022-08-20T10:08:44.193Z,100488.47
2022-08-20T10:11:11.515Z,100484.16
2022-08-20T10:13:38.629Z,100486.91
2022-08-20T10:16:06.010Z,100491.28
2022-08-20T10:18:34.193Z,100486.03
2022-08-20T10:21:01.400Z,100476.31
2022-08-20T10:23:28.530Z,100481.66
2022-08-20T10:25:55.726Z,100468.56
2022-08-20T10:28:22.943Z,100463.31
2022-08-20T10:30:50.076Z,100463.41
2022-08-20T10:33:17.303Z,100457.09
2022-08-20T10:35:44.479Z,100458.25
2022-08-20T10:38:11.617Z,100457.94
2022-08-20T10:40:38.796Z,100454.06
2022-08-20T10:43:06.609Z,100462.22
2022-08-20T10:45:34.599Z,100450.09
2022-08-20T10:48:03.780Z,100449.19
2022-08-20T10:50:30.942Z,100456.03
2022-08-20T10:52:58.239Z,100456.00
2022-08-20T10:55:25.365Z,100468.09
2022-08-20T10:57:52.604Z,100459.88
2022-08-20T11:00:19.900Z,100460.22
2022-08-20T11:02:47.062Z,100460.19
2022-08-20T11:05:14.644Z,100455.09
2022-08-20T11:07:49.940Z,100459.53
2022-08-20T11:10:28.950Z,100452.69
2022-08-20T11:12:56.401Z,100450.44
2022-08-20T11:15:23.528Z,100448.69
2022-08-20T11:17:50.841Z,100448.09
2022-08-20T11:20:19.490Z,100450.59
2022-08-20T11:22:46.786Z,100451.31
2022-08-20T11:25:14.120Z,100445.53
2022-08-20T11:27:44.217Z,100445.22
2022-08-20T11:30:13.207Z,100452.31
2022-08-20T11:32:40.327Z,100446.59
2022-08-20T11:35:38.477Z,100444.81
2022-08-20T11:37:55.928Z,100437.22
2022-08-20T11:40:23.281Z,100443.72
2022-08-20T11:43:13.258Z,100449.97
2022-08-20T11:45:37.991Z,100444.56
2022-08-20T11:48:05.315Z,100442.31
2022-08-20T11:50:32.439Z,100442.38
2022-08-20T11:53:01.148Z,100442.44
2022-08-20T11:55:31.004Z,100437.97
2022-08-20T11:58:00.563Z,100438.78
2022-08-20T12:00:31.992Z,100449.41
2022-08-20T12:03:08.882Z,100450.84
2022-08-20T12:05:41.168Z,100446.09
2022-08-20T12:08:09.130Z,100451.78
2022-08-20T12:10:36.874Z,100444.41
2022-08-20T12:13:04.887Z,100444.91
2022-08-20T12:15:35.680Z,100441.75
2022-08-20T12:18:06.936Z,100446.88
2022-08-20T12:20:34.355Z,100443.06
2022-08-20T12:23:01.566Z,100450.06
2022-08-20T12:25:28.770Z,100449.00
2022-08-20T12:27:56.421Z,100445.28
2022-08-20T12:30:24.122Z,100439.75
2022-08-20T12:32:51.498Z,100433.31
2022-08-20T12:35:19.458Z,100431.63
2022-08-20T12:37:47.254Z,100428.38
2022-08-20T12:40:18.112Z,100430.66
2022-08-20T12:42:57.860Z,100427.75
2022-08-20T12:45:25.242Z,100425.38
2022-08-20T12:47:52.610Z,100422.50
2022-08-20T12:50:21.466Z,100419.47
2022-08-20T12:52:48.991Z,100423.63
2022-08-20T12:55:17.331Z,100423.47
2022-08-20T12:57:49.760Z,100429.84
2022-08-20T13:00:20.575Z,100427.38
2022-08-20T13:02:48.994Z,100419.25
2022-08-20T13:05:16.597Z,100423.91
2022-08-20T13:07:44.260Z,100426.44
2022-08-20T13:10:12.683Z,100427.09
2022-08-20T13:12:40.074Z,100422.00
2022-08-20T13:15:07.424Z,100418.41
2022-08-20T13:17:38.976Z,100424.56
2022-08-20T13:20:08.294Z,100422.88
2022-08-20T13:22:35.442Z,100422.13
2022-08-20T13:25:02.940Z,100424.44
2022-08-20T13:27:30.057Z,100415.59
2022-08-20T13:29:58.771Z,100419.28
2022-08-20T13:32:26.411Z,100415.00
2022-08-20T13:34:53.593Z,100414.50
2022-08-20T13:37:25.264Z,100416.13
2022-08-20T13:39:57.022Z,100407.00
2022-08-20T13:42:24.373Z,100403.91
2022-08-20T13:44:51.526Z,100397.41
2022-08-20T13:47:18.659Z,100396.84
2022-08-20T13:49:46.204Z,100392.13
2022-08-20T13:52:16.907Z,100388.91
2022-08-20T13:54:44.266Z,100386.97
2022-08-20T13:57:13.238Z,100386.06
2022-08-20T13:59:41.766Z,100382.44
2022-08-20T14:02:09.846Z,100393.47
2022-08-20T14:04:37.404Z,100387.22
2022-08-20T14:07:18.789Z,100376.28
2022-08-20T14:09:47.276Z,100382.94
2022-08-20T14:12:15.585Z,100381.44
2022-08-20T14:14:43.209Z,100382.59
2022-08-20T14:17:16.483Z,100379.97
2022-08-20T14:19:44.297Z,100377.41
2022-08-20T14:22:11.487Z,100375.09
2022-08-20T14:24:38.803Z,100378.69
2022-08-20T14:27:09.203Z,100375.50
2022-08-20T14:29:37.954Z,100372.53
2022-08-20T14:32:05.757Z,100371.69
2022-08-20T14:34:33.625Z,100369.94
2022-08-20T14:37:10.034Z,100365.00
2022-08-20T14:39:37.265Z,100365.16
2022-08-20T14:42:04.795Z,100363.78
2022-08-20T14:44:31.915Z,100363.53
2022-08-20T14:47:10.168Z,100361.25
2022-08-20T14:49:37.422Z,100368.47
2022-08-20T14:52:04.935Z,100376.38
2022-08-20T14:54:32.499Z,100372.22
2022-08-20T14:57:02.044Z,100372.66
2022-08-20T14:59:29.559Z,100362.44
2022-08-20T15:01:56.906Z,100363.13
2022-08-20T15:04:24.161Z,100363.78
2022-08-20T15:06:54.722Z,100365.66
2022-08-20T15:09:21.885Z,100368.94
2022-08-20T15:11:48.986Z,100358.56
2022-08-20T15:14:18.351Z,100359.94
2022-08-20T15:16:45.664Z,100355.84
2022-08-20T15:19:12.749Z,100365.63
2022-08-20T15:21:45.056Z,100357.25
2022-08-20T15:24:18.961Z,100357.66
2022-08-20T15:26:46.753Z,100357.66
2022-08-20T15:29:23.254Z,100361.94
2022-08-20T15:31:51.039Z,100358.53
2022-08-20T15:34:18.502Z,100355.63
2022-08-20T15:36:45.866Z,100353.03
2022-08-20T15:39:12.991Z,100362.50
2022-08-20T15:41:40.096Z,100362.38
2022-08-20T15:44:07.263Z,100366.69
2022-08-20T15:46:37.691Z,100363.81
2022-08-20T15:49:11.382Z,100368.72
2022-08-20T15:51:43.027Z,100375.56
2022-08-20T15:54:18.730Z,100378.72
2022-08-20T15:56:48.963Z,100385.78
2022-08-20T15:59:16.653Z,100382.13
2022-08-20T16:01:53.553Z,100385.31
2022-08-20T16:04:33.103Z,100384.69
2022-08-20T16:07:04.607Z,100388.81
2022-08-20T16:09:43.194Z,100381.97
2022-08-20T16:12:16.275Z,100388.88
2022-08-20T16:14:44.868Z,100381.31
2022-08-20T16:17:16.985Z,100383.09
2022-08-20T16:19:51.419Z,100389.84
2022-08-20T16:22:19.414Z,100376.44
2022-08-20T16:24:46.749Z,100382.72
2022-08-20T16:27:40.090Z,100375.44
2022-08-20T16:30:15.588Z,100382.94
2022-08-20T16:32:47.575Z,100381.22
2022-08-20T16:35:29.017Z,100382.34
2022-08-20T16:38:00.029Z,100384.88
2022-08-20T16:40:27.131Z,100388.16
2022-08-20T16:42:56.962Z,100383.31
2022-08-20T16:45:26.154Z,100379.72
2022-08-20T16:47:55.528Z,100379.25
2022-08-20T16:50:24.706Z,100380.03
2022-08-20T16:52:52.277Z,100376.91
2022-08-20T16:55:20.479Z,100380.34
2022-08-20T16:57:48.762Z,100381.63
2022-08-20T17:00:30.457Z,100391.00
2022-08-20T17:02:59.304Z,100386.31
2022-08-20T17:05:42.453Z,100386.03
2022-08-20T17:08:15.959Z,100376.69
2022-08-20T17:11:08.980Z,100377.31
2022-08-20T17:13:37.551Z,100375.75
2022-08-20T17:16:07.340Z,100373.09
2022-08-20T17:18:37.008Z,100374.03
2022-08-20T17:21:16.816Z,100371.38
2022-08-20T17:23:56.121Z,100363.09
2022-08-20T17:26:23.731Z,100367.28
2022-08-20T17:28:52.016Z,100364.97
2022-08-20T17:31:20.214Z,100377.72
2022-08-20T17:33:47.461Z,100379.75
2022-08-20T17:36:20.155Z,100381.59
2022-08-20T17:38:48.689Z,100385.78
2022-08-20T17:41:21.674Z,100385.31
2022-08-20T17:43:56.598Z,100387.59
2022-08-20T17:46:25.421Z,100392.88
2022-08-20T17:48:52.777Z,100395.03
2022-08-20T17:51:21.738Z,100406.72
2022-08-20T17:53:56.905Z,100407.66
2022-08-20T17:56:28.027Z,100405.78
2022-08-20T17:59:05.743Z,100412.63
2022-08-20T18:01:33.507Z,100415.69
2022-08-20T18:04:00.676Z,100419.88
2022-08-20T18:06:46.447Z,100420.47
2022-08-20T18:09:26.271Z,100418.41
2022-08-20T18:12:01.859Z,100411.97
2022-08-20T18:14:28.958Z,100418.28
2022-08-20T18:16:56.273Z,100415.63
2022-08-20T18:19:26.101Z,100415.31
2022-08-20T18:21:53.241Z,100411.91
2022-08-20T18:24:33.522Z,100413.31
2022-08-20T18:27:08.843Z,100412.84
2022-08-20T18:29:38.886Z,100414.22
2022-08-20T18:32:07.762Z,100415.94
2022-08-20T18:34:37.253Z,100419.97
2022-08-20T18:37:06.635Z,100421.13
2022-08-20T18:39:36.415Z,100429.25
2022-08-20T18:42:09.066Z,100425.94
2022-08-20T18:44:41.117Z,100425.59
2022-08-20T18:47:23.085Z,100427.06
2022-08-20T18:50:16.492Z,100427.59
2022-08-20T18:52:46.708Z,100429.22
2022-08-20T18:55:37.512Z,100435.28
2022-08-20T18:58:12.387Z,100443.44
2022-08-20T19:00:44.530Z,100442.19
2022-08-20T19:03:17.419Z,100435.81
2022-08-20T19:05:44.561Z,100439.63
2022-08-20T19:08:23.041Z,100436.69
2022-08-20T19:11:06.894Z,100442.91
2022-08-20T19:13:51.367Z,100444.69
2022-08-20T19:16:21.025Z,100441.91
2022-08-20T19:18:48.187Z,100450.59
2022-08-20T19:21:16.461Z,100452.53
2022-08-20T19:23:47.801Z,100448.44
2022-08-20T19:26:24.825Z,100461.75
2022-08-20T19:28:58.884Z,100454.94
2022-08-20T19:31:28.258Z,100458.78
2022-08-20T19:34:04.036Z,100462.22
2022-08-20T19:36:52.994Z,100460.25
2022-08-20T19:39:21.694Z,100456.97
2022-08-20T19:41:56.805Z,100464.59
2022-08-20T19:44:36.460Z,100466.34
2022-08-20T19:47:04.566Z,100452.38
2022-08-20T19:49:47.040Z,100454.47
2022-08-20T19:52:17.058Z,100464.41
2022-08-20T19:54:46.886Z,100462.22
2022-08-20T19:57:14.353Z,100465.78
2022-08-20T19:59:50.753Z,100460.66
2022-08-20T20:02:20.469Z,100461.00
2022-08-20T20:04:55.752Z,100458.94
2022-08-20T20:07:35.375Z,100461.38
2022-08-20T20:10:06.700Z,100466.69
2022-08-20T20:12:34.049Z,100469.72
2022-08-20T20:15:01.885Z,100462.66
2022-08-20T20:17:31.631Z,100462.47
2022-08-20T20:20:00.634Z,100462.00
2022-08-20T20:22:32.125Z,100470.28
2022-08-20T20:24:59.174Z,100467.22
2022-08-20T20:27:27.209Z,100458.97
2022-08-20T20:30:01.945Z,100467.00
2022-08-20T20:32:30.554Z,100457.84
2022-08-20T20:34:59.274Z,100467.28
2022-08-20T20:37:47.913Z,100468.91
2022-08-20T20:40:27.533Z,100466.13
2022-08-20T20:43:06.181Z,100472.28
2022-08-20T20:45:35.593Z,100463.56
2022-08-20T20:48:11.867Z,100470.34
2022-08-20T20:50:39.225Z,100458.69
2022-08-20T20:53:06.459Z,100464.28
2022-08-20T20:55:34.585Z,100465.69
2022-08-20T20:58:02.616Z,100462.03
2022-08-20T21:00:31.475Z,100461.47
2022-08-20T21:02:59.664Z,100471.34
2022-08-20T21:05:30.074Z,100480.00
2022-08-20T21:07:59.193Z,100485.53
2022-08-20T21:10:28.153Z,100487.53
2022-08-20T21:12:55.444Z,100480.50
2022-08-20T21:15:23.703Z,100493.88
2022-08-20T21:17:51.326Z,100488.94
2022-08-20T21:20:18.903Z,100486.94
2022-08-20T21:22:46.147Z,100494.72
2022-08-20T21:25:13.754Z,100490.78
2022-08-20T21:27:43.566Z,100500.22
2022-08-20T21:30:11.025Z,100505.78
2022-08-20T21:32:38.203Z,100504.44
2022-08-20T21:35:05.577Z,100508.66
2022-08-20T21:37:32.807Z,100511.44
2022-08-20T21:40:00.163Z,100513.13
2022-08-20T21:42:29.162Z,100504.31
2022-08-20T21:44:57.483Z,100509.13
2022-08-20T21:47:24.750Z,100511.31
2022-08-20T21:49:52.409Z,100516.44
2022-08-20T21:52:19.554Z,100518.94
2022-08-20T21:54:46.670Z,100520.44
2022-08-20T21:57:17.768Z,100512.50
2022-08-20T21:59:44.904Z,100516.31
2022-08-20T22:02:11.995Z,100521.34
2022-08-20T22:04:39.164Z,100524.19
2022-08-20T22:07:06.426Z,100517.16
2022-08-20T22:09:33.876Z,100523.66
2022-08-20T22:12:01.217Z,100515.00
2022-08-20T22:14:29.255Z,100520.84
2022-08-20T22:16:57.035Z,100516.78
2022-08-20T22:19:24.564Z,100520.19
2022-08-20T22:21:53.358Z,100528.50
2022-08-20T22:24:29.185Z,100524.13
2022-08-20T22:26:56.455Z,100524.97
2022-08-20T22:29:23.583Z,100531.50
2022-08-20T22:31:50.861Z,100541.38
2022-08-20T22:34:19.621Z,100541.47
2022-08-20T22:36:46.983Z,100543.50
2022-08-20T22:39:14.451Z,100541.19
2022-08-20T22:41:41.915Z,100535.03
2022-08-20T22:44:09.058Z,100535.63
2022-08-20T22:46:37.589Z,100538.91
2022-08-20T22:49:06.953Z,100539.88
2022-08-20T22:51:35.043Z,100536.66
2022-08-20T22:54:05.507Z,100533.94
2022-08-20T22:56:32.761Z,100525.78
2022-08-20T22:59:02.218Z,100526.25
2022-08-20T23:01:29.697Z,100528.91
2022-08-20T23:03:58.395Z,100525.78
2022-08-20T23:06:26.506Z,100528.25
2022-08-20T23:08:53.717Z,100529.66
2022-08-20T23:11:21.630Z,100524.25
2022-08-20T23:13:48.770Z,100521.97
2022-08-20T23:16:15.881Z,100527.06
2022-08-20T23:18:43.248Z,100531.38
2022-08-20T23:21:10.310Z,100538.13
2022-08-20T23:23:37.434Z,100541.25
2022-08-20T23:26:04.614Z,100536.47
2022-08-20T23:28:32.466Z,100538.53
2022-08-20T23:30:59.752Z,100535.75
2022-08-20T23:33:26.893Z,100534.53
2022-08-20T23:35:54.127Z,100532.91
2022-08-20T23:38:21.268Z,100530.38
2022-08-20T23:40:48.442Z,100529.19
2022-08-20T23:43:15.553Z,100526.13
2022-08-20T23:45:42.790Z,100527.72
2022-08-20T23:48:10.010Z,100530.34
2022-08-20T23:50:37.583Z,100528.38
2022-08-20T23:53:05.250Z,100524.25
2022-08-20T23:55:32.425Z,100531.66
2022-08-20T23:57:59.792Z,100534.00
